Pagrindinis puslapis
METAR-TAF:

METAR-TAF

Oro uostai :

Nevşehir, Turkija

platuma: 38-46-12N, ilguma: 034-32-30E, Aukštis: 945 m

Dabartinis oras

Ataskaita buvo paskelbta 22 minutes, ne 09:20 UTC
Vėjas 3 kt nuo kintamojo kryptimis
Temperatūra 13°C
Drėgmė 38%
Slėgis 1022 hPa
Matomumas 10 km arba daugiau
Mažai debesys ne aukštis 4000 ft

METAR: LTAZ 270920Z VRB03KT 9999 FEW040 13/M01 Q1022 RMK RWY29 30005KT 250V020

Laikas: 12:42 (09:42 UTC)

Prognozė

Ataskaita buvo paskelbta 5 valandos ir 2 minutes, ne 04:40 UTC
Prognozė galioja nuo 27 metu 06 UTC su 28 metu 06 UTC
Vėjas 2 kt nuo kintamojo kryptimis
Matomumas 10 km arba daugiau
Išsisklaidę debesys ne aukštis 4000 ft
Išsisklaidę debesys ne aukštis 10000 ft
Laikinai
nuo 28 metu 01 UTC su 28 metu 05 UTC
Su prošvaistėmis ne aukštis 3500 ft
Su prošvaistėmis ne aukštis 9000 ft
lietus

TAF: LTAZ 270440Z 2706/2806 VRB02KT 9999 SCT040 SCT100 TEMPO 2801/2805 -SHRA BKN035 BKN090

Orai ataskaitas ir orų prognozės (METAR, TAF).

turimą stotys yra geltonos ir raudonos taškus žemėlapyje.

Perkelti pele per norėdami pamatyti stoties vardą.

Tada spustelėkite, norėdami matyti oro stebėjimo ir prognozės.

Norėdami pakeisti žemėlapį: spustelėkite ant žalios mygtukų su juodo kryžiaus žemyn,; žalią mygtuką su brūkšneliu, jei norite nutolinti; arba žalių rodyklių gretimoms žemėlapius.


METAR-TAF: